MSC Magnifica — 3FLO4 — position and weather

sailwx.info

Track history (hours):
 
Tides and Currents Weather Stations Pressure Air Temp Water Temp Dewpoint Dewpoint Depression Visibility Wind Speed Wind Dir Waves Ship Positions

MSC Magnifica

Last reported at 2017-Mar-28 19:34 UTC. Time now 2017-Mar-28 19:48 UTC.
Position N 36°01' W 005°18'.

Length 294 m; draft 7.8 m.

Type: Ship. MMSI: 352594000.

Date/timePositionNaut miles runAvg speedWind from/ knotsBaromVisibWave heightAir tempDewpointWater temp
2017-Mar-28 19:34N 36°01' W 005°18'1918.5
2017-Mar-28 18:32N 36°06' W 004°56'21317.7
2017-Mar-28 06:30N 37°24' W 000°48'1717.7
2017-Mar-28 05:34N 37°35' W 000°33'1817.3
2017-Mar-28 04:33N 37°50' W 000°21'10020.0
2017-Mar-27 23:34N 39°15' E 000°46'4120.4
2017-Mar-27 21:32N 39°51' E 001°11'2020.3
2017-Mar-27 20:33N 40°09' E 001°23'2020.1
2017-Mar-27 19:33N 40°27' E 001°35'2020.5
2017-Mar-27 18:34N 40°45' E 001°48'2020.3
2017-Mar-27 17:33N 41°03' E 002°01'20 6.5
2017-Mar-27 14:26N 41°22' E 002°11'0 0.0
2017-Mar-27 13:33N 41°22' E 002°11'0 0.0
2017-Mar-27 12:33N 41°22' E 002°11'0 0.0
2017-Mar-27 11:33N 41°22' E 002°11'0 0.0
2017-Mar-27 10:33N 41°22' E 002°11'4 4.2
2017-Mar-27 09:33N 41°17' E 002°12'2720.0
2017-Mar-27 08:11N 41°29' E 002°45'22620.8
2017-Mar-26 21:18N 43°16' E 007°15'1620.9
2017-Mar-26 20:33N 43°26' E 007°32'2321.8
2017-Mar-26 19:31N 43°40' E 007°55'2521.7
2017-Mar-26 18:21N 43°57' E 008°22'1721.7
2017-Mar-26 17:33N 44°09' E 008°40'1919.1
2017-Mar-26 16:33N 44°23' E 008°56'1 1.3
2017-Mar-26 15:27N 44°25' E 008°55'0 0.0
2017-Mar-26 14:24N 44°25' E 008°55'0 0.0
2017-Mar-26 13:27N 44°25' E 008°55'0 0.0
2017-Mar-26 12:30N 44°25' E 008°55'0 0.0
2017-Mar-26 11:30N 44°25' E 008°55'0 0.0
2017-Mar-26 10:33N 44°25' E 008°55'0 0.0
2017-Mar-26 09:30N 44°25' E 008°55'0 0.0
2017-Mar-26 08:33N 44°25' E 008°55'0 0.0
2017-Mar-26 07:33N 44°25' E 008°55'0 0.0
2017-Mar-26 06:33N 44°25' E 008°55'0 0.0
2017-Mar-26 05:33N 44°25' E 008°55'5 4.9
2017-Mar-26 04:33N 44°21' E 008°59'1818.2
2017-Mar-26 03:33N 44°05' E 009°11'1919.3
2017-Mar-26 02:33N 43°48' E 009°25'2020.1
2017-Mar-26 01:33N 43°31' E 009°39'2020.0
2017-Mar-26 00:33N 43°13' E 009°52'231 9.5
2017-Mar-25 00:08N 40°20' E 013°18'1118.5
2017-Mar-24 23:33N 40°12' E 013°27'1818.1
2017-Mar-24 22:33N 39°59' E 013°44'1818.2
2017-Mar-24 21:33N 39°45' E 013°59'1918.3
2017-Mar-24 20:32N 39°31' E 014°16'2018.5
2017-Mar-24 19:29N 39°17' E 014°33'1818.7
2017-Mar-24 18:30N 39°03' E 014°48'2218.4
2017-Mar-24 17:18N 38°47' E 015°08'1318.0
2017-Mar-24 16:33N 38°37' E 015°19'1818.4
2017-Mar-24 15:33N 38°24' E 015°36'1313.0
2017-Mar-24 14:33N 38°11' E 015°37'1211.6
2017-Mar-24 13:33N 37°60' E 015°36'2017.4
2017-Mar-24 12:26N 37°48' E 015°57'1718.8
2017-Mar-24 11:33N 37°43' E 016°17'3020.7
2017-Mar-24 10:06N 37°33' E 016°52'1119.7
2017-Mar-24 09:33N 37°29' E 017°05'1818.0
2017-Mar-24 08:33N 37°24' E 017°27'1717.6
2017-Mar-24 07:34N 37°18' E 017°47'1818.2
2017-Mar-24 06:33N 37°12' E 018°09'  
2017-Mar-21 15:34N 34°33' E 032°49'1313.4
2017-Mar-21 14:34N 34°38' E 033°04'3 2.4
2017-Mar-21 13:18N 34°39' E 033°01'0 0.0
2017-Mar-21 11:19N 34°39' E 033°01'0 0.0
2017-Mar-21 10:31N 34°39' E 033°01'45511.9
2017-Mar-19 20:15N 37°20' E 024°15'1114.4
2017-Mar-19 19:30N 37°27' E 024°04'1414.4
2017-Mar-19 18:33N 37°35' E 023°50'1414.0
2017-Mar-19 17:33N 37°45' E 023°39'1110.8
2017-Mar-19 16:33N 37°56' E 023°38'0 0.1
2017-Mar-19 15:32N 37°56' E 023°38'0 0.0
2017-Mar-19 14:32N 37°56' E 023°38'0 0.0
2017-Mar-19 13:32N 37°56' E 023°38'0 0.0
2017-Mar-19 12:32N 37°56' E 023°38'0 0.0
2017-Mar-19 11:32N 37°56' E 023°38'0 0.0
2017-Mar-19 10:32N 37°56' E 023°38'0 0.0
2017-Mar-19 09:32N 37°56' E 023°38'0 0.0
2017-Mar-19 08:29N 37°56' E 023°38'0 0.0
2017-Mar-19 07:32N 37°56' E 023°38'0 0.0
2017-Mar-19 06:32N 37°56' E 023°38'0 0.0
2017-Mar-19 05:32N 37°56' E 023°38'2 1.9
2017-Mar-19 04:33N 37°55' E 023°37'1616.2
2017-Mar-19 03:33N 37°39' E 023°45'1818.2
2017-Mar-19 02:32N 37°21' E 023°43'  
Track history (hours):
 
Tides and Currents Weather Stations Pressure Air Temp Water Temp Dewpoint Dewpoint Depression Visibility Wind Speed Wind Dir Waves Ship Positions

MSC Magnifica

Last reported at 2017-Mar-28 19:34 UTC. Time now 2017-Mar-28 19:48 UTC.
Position N 36°01' W 005°18'.

Length 294 m; draft 7.8 m.

Type: Ship. MMSI: 352594000.

Date/timePositionNaut miles runAvg speedWind from/ knotsBaromVisibWave heightAir tempDewpointWater temp
2017-Mar-28 19:34N 36°01' W 005°18'1918.5
2017-Mar-28 18:32N 36°06' W 004°56'21317.7
2017-Mar-28 06:30N 37°24' W 000°48'1717.7
2017-Mar-28 05:34N 37°35' W 000°33'1817.3
2017-Mar-28 04:33N 37°50' W 000°21'10020.0
2017-Mar-27 23:34N 39°15' E 000°46'4120.4
2017-Mar-27 21:32N 39°51' E 001°11'2020.3
2017-Mar-27 20:33N 40°09' E 001°23'2020.1
2017-Mar-27 19:33N 40°27' E 001°35'2020.5
2017-Mar-27 18:34N 40°45' E 001°48'2020.3
2017-Mar-27 17:33N 41°03' E 002°01'20 6.5
2017-Mar-27 14:26N 41°22' E 002°11'0 0.0
2017-Mar-27 13:33N 41°22' E 002°11'0 0.0
2017-Mar-27 12:33N 41°22' E 002°11'0 0.0
2017-Mar-27 11:33N 41°22' E 002°11'0 0.0
2017-Mar-27 10:33N 41°22' E 002°11'4 4.2
2017-Mar-27 09:33N 41°17' E 002°12'2720.0
2017-Mar-27 08:11N 41°29' E 002°45'22620.8
2017-Mar-26 21:18N 43°16' E 007°15'1620.9
2017-Mar-26 20:33N 43°26' E 007°32'2321.8
2017-Mar-26 19:31N 43°40' E 007°55'2521.7
2017-Mar-26 18:21N 43°57' E 008°22'1721.7
2017-Mar-26 17:33N 44°09' E 008°40'1919.1
2017-Mar-26 16:33N 44°23' E 008°56'1 1.3
2017-Mar-26 15:27N 44°25' E 008°55'0 0.0
2017-Mar-26 14:24N 44°25' E 008°55'0 0.0
2017-Mar-26 13:27N 44°25' E 008°55'0 0.0
2017-Mar-26 12:30N 44°25' E 008°55'0 0.0
2017-Mar-26 11:30N 44°25' E 008°55'0 0.0
2017-Mar-26 10:33N 44°25' E 008°55'0 0.0
2017-Mar-26 09:30N 44°25' E 008°55'0 0.0
2017-Mar-26 08:33N 44°25' E 008°55'0 0.0
2017-Mar-26 07:33N 44°25' E 008°55'0 0.0
2017-Mar-26 06:33N 44°25' E 008°55'0 0.0
2017-Mar-26 05:33N 44°25' E 008°55'5 4.9
2017-Mar-26 04:33N 44°21' E 008°59'1818.2
2017-Mar-26 03:33N 44°05' E 009°11'1919.3
2017-Mar-26 02:33N 43°48' E 009°25'2020.1
2017-Mar-26 01:33N 43°31' E 009°39'2020.0
2017-Mar-26 00:33N 43°13' E 009°52'231 9.5
2017-Mar-25 00:08N 40°20' E 013°18'1118.5
2017-Mar-24 23:33N 40°12' E 013°27'1818.1
2017-Mar-24 22:33N 39°59' E 013°44'1818.2
2017-Mar-24 21:33N 39°45' E 013°59'1918.3
2017-Mar-24 20:32N 39°31' E 014°16'2018.5
2017-Mar-24 19:29N 39°17' E 014°33'1818.7
2017-Mar-24 18:30N 39°03' E 014°48'2218.4
2017-Mar-24 17:18N 38°47' E 015°08'1318.0
2017-Mar-24 16:33N 38°37' E 015°19'1818.4
2017-Mar-24 15:33N 38°24' E 015°36'1313.0
2017-Mar-24 14:33N 38°11' E 015°37'1211.6
2017-Mar-24 13:33N 37°60' E 015°36'2017.4
2017-Mar-24 12:26N 37°48' E 015°57'1718.8
2017-Mar-24 11:33N 37°43' E 016°17'3020.7
2017-Mar-24 10:06N 37°33' E 016°52'1119.7
2017-Mar-24 09:33N 37°29' E 017°05'1818.0
2017-Mar-24 08:33N 37°24' E 017°27'1717.6
2017-Mar-24 07:34N 37°18' E 017°47'1818.2
2017-Mar-24 06:33N 37°12' E 018°09'  
2017-Mar-21 15:34N 34°33' E 032°49'1313.4
2017-Mar-21 14:34N 34°38' E 033°04'3 2.4
2017-Mar-21 13:18N 34°39' E 033°01'0 0.0
2017-Mar-21 11:19N 34°39' E 033°01'0 0.0
2017-Mar-21 10:31N 34°39' E 033°01'45511.9
2017-Mar-19 20:15N 37°20' E 024°15'1114.4
2017-Mar-19 19:30N 37°27' E 024°04'1414.4
2017-Mar-19 18:33N 37°35' E 023°50'1414.0
2017-Mar-19 17:33N 37°45' E 023°39'1110.8
2017-Mar-19 16:33N 37°56' E 023°38'0 0.1
2017-Mar-19 15:32N 37°56' E 023°38'0 0.0
2017-Mar-19 14:32N 37°56' E 023°38'0 0.0
2017-Mar-19 13:32N 37°56' E 023°38'0 0.0
2017-Mar-19 12:32N 37°56' E 023°38'0 0.0
2017-Mar-19 11:32N 37°56' E 023°38'0 0.0
2017-Mar-19 10:32N 37°56' E 023°38'0 0.0
2017-Mar-19 09:32N 37°56' E 023°38'0 0.0
2017-Mar-19 08:29N 37°56' E 023°38'0 0.0
2017-Mar-19 07:32N 37°56' E 023°38'0 0.0
2017-Mar-19 06:32N 37°56' E 023°38'0 0.0
2017-Mar-19 05:32N 37°56' E 023°38'2 1.9
2017-Mar-19 04:33N 37°55' E 023°37'1616.2
2017-Mar-19 03:33N 37°39' E 023°45'1818.2
2017-Mar-19 02:32N 37°21' E 023°43'  

Dump ship's entire track history